createdAt,value
2022-12-19T00:00:04.479Z,6.15
2022-12-19T00:02:36.644Z,7.08
2022-12-19T00:05:07.952Z,6.37
2022-12-19T00:07:38.122Z,7.03
2022-12-19T00:10:09.433Z,7.20
2022-12-19T00:12:39.501Z,6.70
2022-12-19T00:15:10.478Z,7.47
2022-12-19T00:17:40.629Z,6.97
2022-12-19T00:20:11.763Z,7.55
2022-12-19T00:22:43.615Z,7.28
2022-12-19T00:25:13.798Z,7.22
2022-12-19T00:27:44.598Z,6.03
2022-12-19T00:30:14.993Z,6.00
2022-12-19T00:32:45.614Z,6.35
2022-12-19T00:35:16.185Z,6.65
2022-12-19T00:37:49.506Z,6.85
2022-12-19T00:40:18.522Z,7.28
2022-12-19T00:42:53.558Z,6.58
2022-12-19T00:45:20.995Z,7.17
2022-12-19T00:47:51.145Z,7.10
2022-12-19T00:50:21.324Z,6.60
2022-12-19T00:52:51.415Z,6.75
2022-12-19T00:55:21.604Z,6.53
2022-12-19T00:57:51.761Z,7.03
2022-12-19T01:00:23.886Z,6.53
2022-12-19T01:02:54.279Z,6.75
2022-12-19T01:05:25.181Z,6.45
2022-12-19T01:07:55.702Z,6.42
2022-12-19T01:10:25.876Z,5.87
2022-12-19T01:12:55.954Z,6.70
2022-12-19T01:15:26.172Z,6.55
2022-12-19T01:17:56.302Z,6.40
2022-12-19T01:20:29.796Z,6.65
2022-12-19T01:23:00.243Z,6.20
2022-12-19T01:25:31.435Z,6.72
2022-12-19T01:28:01.564Z,6.37
2022-12-19T01:30:31.995Z,6.47
2022-12-19T01:33:02.941Z,6.50
2022-12-19T01:35:33.036Z,7.00
2022-12-19T01:38:07.826Z,6.28
2022-12-19T01:40:35.932Z,6.62
2022-12-19T01:43:06.576Z,6.62
2022-12-19T01:45:45.114Z,6.30
2022-12-19T01:48:36.842Z,6.50
2022-12-19T01:51:10.131Z,7.50
2022-12-19T01:53:48.702Z,6.30
2022-12-19T01:56:15.854Z,7.60
2022-12-19T01:58:48.747Z,7.28
2022-12-19T02:01:20.230Z,7.72
2022-12-19T02:03:51.828Z,6.95
2022-12-19T02:06:23.402Z,6.60
2022-12-19T02:08:54.438Z,6.87
2022-12-19T02:11:24.813Z,6.85
2022-12-19T02:13:55.502Z,6.83
2022-12-19T02:16:31.843Z,6.33
2022-12-19T02:19:21.819Z,6.62
2022-12-19T02:21:57.814Z,7.35
2022-12-19T02:24:36.524Z,6.72
2022-12-19T02:27:26.321Z,7.30
2022-12-19T02:30:11.925Z,6.42
2022-12-19T02:32:56.879Z,7.12
2022-12-19T02:35:33.214Z,6.72
2022-12-19T02:38:15.515Z,7.05
2022-12-19T02:41:07.044Z,6.87
2022-12-19T02:43:40.329Z,7.05
2022-12-19T02:46:12.349Z,7.17
2022-12-19T02:48:43.118Z,7.65
2022-12-19T02:51:13.249Z,7.85
2022-12-19T02:53:44.133Z,7.37
2022-12-19T02:56:17.459Z,7.78
2022-12-19T02:59:11.750Z,6.72
2022-12-19T03:01:54.292Z,7.55
2022-12-19T03:04:36.539Z,7.10
2022-12-19T03:07:44.537Z,6.72
2022-12-19T03:10:26.798Z,7.97
2022-12-19T03:13:05.641Z,7.55
2022-12-19T03:15:36.818Z,7.95
2022-12-19T03:18:07.455Z,7.58
2022-12-19T03:20:57.891Z,7.08
2022-12-19T03:23:30.072Z,6.78
2022-12-19T03:26:08.875Z,7.47
2022-12-19T03:28:50.811Z,6.67
2022-12-19T03:31:26.862Z,6.90
2022-12-19T03:34:00.368Z,6.87
2022-12-19T03:36:33.544Z,7.45
2022-12-19T03:39:06.650Z,7.15
2022-12-19T03:41:57.997Z,7.45
2022-12-19T03:44:31.231Z,7.35
2022-12-19T03:47:10.434Z,7.72
2022-12-19T03:49:41.596Z,7.47
2022-12-19T03:52:27.216Z,7.65
2022-12-19T03:55:15.655Z,7.30
2022-12-19T03:57:49.002Z,7.58
2022-12-19T04:00:21.430Z,7.33
2022-12-19T04:02:54.631Z,7.75
2022-12-19T04:05:29.755Z,7.62
2022-12-19T04:08:05.599Z,8.50
2022-12-19T04:10:38.935Z,7.85
2022-12-19T04:13:12.256Z,8.13
2022-12-19T04:15:48.531Z,7.47
2022-12-19T04:18:21.202Z,6.92
2022-12-19T04:20:54.331Z,7.55
2022-12-19T04:23:42.815Z,8.30
2022-12-19T04:26:14.777Z,8.55
2022-12-19T04:28:50.910Z,8.20
2022-12-19T04:31:22.174Z,7.72
2022-12-19T04:33:52.493Z,7.42
2022-12-19T04:36:22.970Z,8.18
2022-12-19T04:38:53.708Z,8.00
2022-12-19T04:41:24.067Z,7.45
2022-12-19T04:43:54.245Z,7.62
2022-12-19T04:46:24.433Z,7.92
2022-12-19T04:48:54.681Z,7.53
2022-12-19T04:51:25.098Z,8.50
2022-12-19T04:53:55.249Z,7.92
2022-12-19T04:56:25.469Z,8.75
2022-12-19T04:59:00.746Z,9.25
2022-12-19T05:01:31.303Z,8.60
2022-12-19T05:04:04.633Z,8.20
2022-12-19T05:06:33.759Z,8.18
2022-12-19T05:09:04.041Z,9.00
2022-12-19T05:11:34.438Z,9.95
2022-12-19T05:14:04.880Z,9.18
2022-12-19T05:16:35.089Z,8.58
2022-12-19T05:19:05.527Z,8.20
2022-12-19T05:21:35.725Z,8.98
2022-12-19T05:24:06.562Z,8.65
2022-12-19T05:26:37.507Z,9.35
2022-12-19T05:29:08.736Z,8.80
2022-12-19T05:31:38.942Z,8.63
2022-12-19T05:34:09.263Z,9.53
2022-12-19T05:36:39.451Z,9.88
2022-12-19T05:39:09.589Z,9.83
2022-12-19T05:41:39.791Z,9.08
2022-12-19T05:44:11.554Z,9.25
2022-12-19T05:46:42.059Z,9.75
2022-12-19T05:49:12.404Z,9.73
2022-12-19T05:51:42.695Z,9.65
2022-12-19T05:54:12.936Z,9.53
2022-12-19T05:56:43.068Z,9.23
2022-12-19T05:59:13.558Z,8.93
2022-12-19T06:01:44.024Z,9.05
2022-12-19T06:04:14.309Z,9.83
2022-12-19T06:06:44.725Z,9.38
2022-12-19T06:09:14.929Z,8.83
2022-12-19T06:11:45.150Z,9.28
2022-12-19T06:14:15.448Z,9.08
2022-12-19T06:16:45.759Z,9.43
2022-12-19T06:19:16.407Z,9.03
2022-12-19T06:21:48.493Z,9.00
2022-12-19T06:24:18.700Z,9.08
2022-12-19T06:26:48.901Z,9.08
2022-12-19T06:29:19.183Z,9.35
2022-12-19T06:31:49.527Z,9.25
2022-12-19T06:34:39.842Z,8.48
2022-12-19T06:36:52.140Z,8.20
2022-12-19T06:39:22.756Z,11.95
2022-12-19T06:42:10.732Z,16.48
2022-12-19T06:44:41.074Z,15.90
2022-12-19T06:47:11.323Z,15.98
2022-12-19T06:49:41.700Z,15.45
2022-12-19T06:52:11.914Z,16.90
2022-12-19T06:54:42.598Z,16.70
2022-12-19T06:57:13.037Z,13.50
2022-12-19T06:59:43.494Z,14.23
2022-12-19T07:02:19.682Z,13.30
2022-12-19T07:04:55.792Z,12.25
2022-12-19T07:07:25.972Z,13.30
2022-12-19T07:09:56.226Z,13.53
2022-12-19T07:12:26.799Z,13.93
2022-12-19T07:14:57.084Z,14.25
2022-12-19T07:17:29.421Z,14.73
2022-12-19T07:20:00.198Z,14.90
2022-12-19T07:22:33.435Z,14.20
2022-12-19T07:25:06.239Z,14.07
2022-12-19T07:27:37.262Z,14.35
2022-12-19T07:30:08.784Z,14.43
2022-12-19T07:32:39.642Z,44.95
2022-12-19T07:35:10.917Z,21.70
2022-12-19T07:37:40.995Z,20.17
2022-12-19T07:40:14.482Z,19.90
2022-12-19T07:42:45.397Z,18.12
2022-12-19T07:45:15.718Z,18.60
2022-12-19T07:47:45.953Z,17.57
2022-12-19T07:50:16.331Z,16.40
2022-12-19T07:52:46.944Z,15.70
2022-12-19T07:55:17.407Z,16.02
2022-12-19T07:57:47.637Z,15.95
2022-12-19T08:00:18.463Z,15.98
2022-12-19T08:02:48.835Z,14.30
2022-12-19T08:05:19.719Z,13.78
2022-12-19T08:07:49.878Z,15.58
2022-12-19T08:10:22.309Z,13.45
2022-12-19T08:12:52.966Z,13.98
2022-12-19T08:15:23.117Z,15.03
2022-12-19T08:17:54.873Z,14.63
2022-12-19T08:20:25.283Z,13.45
2022-12-19T08:22:55.419Z,13.93
2022-12-19T08:25:25.780Z,13.05
2022-12-19T08:27:55.935Z,13.90
2022-12-19T08:30:26.133Z,16.60
2022-12-19T08:32:56.473Z,17.80
2022-12-19T08:35:26.714Z,17.35
2022-12-19T08:37:56.870Z,17.52
2022-12-19T08:40:27.168Z,17.37
2022-12-19T08:42:57.461Z,16.95
2022-12-19T08:45:27.617Z,16.52
2022-12-19T08:47:57.850Z,17.05
2022-12-19T08:50:28.352Z,17.87
2022-12-19T08:52:58.509Z,17.25
2022-12-19T08:55:29.035Z,16.25
2022-12-19T08:57:59.213Z,16.45
2022-12-19T09:00:31.361Z,16.42
2022-12-19T09:03:01.885Z,17.10
2022-12-19T09:06:01.422Z,16.77
2022-12-19T09:08:04.895Z,16.52
2022-12-19T09:10:39.838Z,16.87
2022-12-19T09:13:10.031Z,16.42
2022-12-19T09:15:41.137Z,17.30
2022-12-19T09:18:12.509Z,17.55
2022-12-19T09:20:43.103Z,17.02
2022-12-19T09:23:13.387Z,16.93
2022-12-19T09:25:43.625Z,16.07
2022-12-19T09:28:29.494Z,16.97
2022-12-19T09:30:46.747Z,16.27
2022-12-19T09:33:19.869Z,16.17
2022-12-19T09:35:56.633Z,17.17
2022-12-19T09:38:27.589Z,15.70
2022-12-19T09:41:00.820Z,16.42
2022-12-19T09:43:39.618Z,14.55
2022-12-19T09:46:18.292Z,15.30
2022-12-19T09:48:55.003Z,15.28
2022-12-19T09:51:52.286Z,14.60
2022-12-19T09:54:25.434Z,14.13
2022-12-19T09:56:58.773Z,14.30
2022-12-19T09:59:49.878Z,14.55
2022-12-19T10:02:23.429Z,14.38
2022-12-19T10:05:07.729Z,14.05
2022-12-19T10:07:56.331Z,14.15
2022-12-19T10:12:34.743Z,14.47
2022-12-19T10:12:55.826Z,13.53
2022-12-19T10:15:39.344Z,12.53
2022-12-19T10:18:28.209Z,12.68
2022-12-19T10:21:05.271Z,13.30
2022-12-19T10:24:00.828Z,12.43
2022-12-19T10:26:37.118Z,12.95
2022-12-19T10:29:19.161Z,13.18
2022-12-19T10:32:13.142Z,12.20
2022-12-19T10:34:45.448Z,11.70
2022-12-19T10:37:35.090Z,12.60
2022-12-19T10:40:17.617Z,13.62
2022-12-19T10:42:51.732Z,11.83
2022-12-19T10:45:24.177Z,12.07
2022-12-19T10:47:58.887Z,12.00
2022-12-19T10:50:30.843Z,11.88
2022-12-19T10:53:11.360Z,11.93
2022-12-19T10:55:50.187Z,12.47
2022-12-19T10:58:26.430Z,11.85
2022-12-19T11:01:05.579Z,12.33
2022-12-19T11:03:36.972Z,12.05
2022-12-19T11:06:07.757Z,10.55
2022-12-19T11:08:38.545Z,10.28
2022-12-19T11:14:49.904Z,10.75
2022-12-19T11:19:15.086Z,11.18
2022-12-19T11:20:38.164Z,11.20
2022-12-19T11:29:18.921Z,11.83
2022-12-19T11:29:19.697Z,11.57
2022-12-19T11:30:42.811Z,12.15
2022-12-19T11:30:46.260Z,12.13
2022-12-19T11:32:36.480Z,12.93
2022-12-19T11:34:36.213Z,12.40
2022-12-19T11:37:27.831Z,12.47
2022-12-19T11:40:28.359Z,12.00
2022-12-19T11:43:43.066Z,11.75
2022-12-19T11:46:05.357Z,12.33
2022-12-19T11:49:08.387Z,11.40
2022-12-19T11:51:59.382Z,11.68
2022-12-19T11:54:35.656Z,11.57
2022-12-19T11:59:41.071Z,10.78
2022-12-19T12:02:45.886Z,10.95
2022-12-19T12:05:41.595Z,11.70
2022-12-19T12:15:09.349Z,11.15
2022-12-19T12:22:48.692Z,11.55
2022-12-19T12:26:11.528Z,11.70
2022-12-19T12:31:15.837Z,11.88
2022-12-19T12:31:27.785Z,12.30
2022-12-19T12:31:46.586Z,12.65
2022-12-19T12:31:46.813Z,12.88
2022-12-19T12:31:54.266Z,13.08
2022-12-19T12:35:54.535Z,12.90
2022-12-19T12:38:29.856Z,12.07
2022-12-19T12:41:20.411Z,11.65
2022-12-19T12:43:54.494Z,11.68
2022-12-19T12:46:42.451Z,13.00
2022-12-19T12:49:36.386Z,14.13
2022-12-19T12:52:09.491Z,15.98
2022-12-19T12:54:42.778Z,15.25
2022-12-19T12:57:30.204Z,14.93
2022-12-19T13:00:20.352Z,13.40
2022-12-19T13:03:13.600Z,12.58
2022-12-19T13:06:07.708Z,12.00
2022-12-19T13:08:46.439Z,11.68
2022-12-19T13:11:40.608Z,12.18
2022-12-19T13:14:38.248Z,12.07
2022-12-19T13:17:14.126Z,11.22
2022-12-19T13:20:04.768Z,11.60
2022-12-19T13:22:40.862Z,11.48
2022-12-19T13:25:30.754Z,10.88
2022-12-19T13:28:10.739Z,11.95
2022-12-19T13:31:20.835Z,10.72
2022-12-19T13:33:55.995Z,11.35
2022-12-19T13:39:49.599Z,11.20
2022-12-19T13:39:58.317Z,11.38
2022-12-19T13:42:33.579Z,11.30
2022-12-19T13:45:12.511Z,11.48
2022-12-19T13:47:45.976Z,10.20
2022-12-19T13:50:25.079Z,11.53
2022-12-19T13:52:55.414Z,11.28
2022-12-19T13:55:27.823Z,10.72
2022-12-19T13:57:58.848Z,11.15
2022-12-19T14:00:40.960Z,9.50
2022-12-19T14:03:14.327Z,10.85
2022-12-19T14:06:18.586Z,10.75
2022-12-19T14:08:23.088Z,10.48
2022-12-19T14:11:30.666Z,9.93
2022-12-19T14:14:16.352Z,9.73
2022-12-19T14:16:45.132Z,10.45
2022-12-19T14:19:25.773Z,11.05
2022-12-19T14:22:05.276Z,10.18
2022-12-19T14:24:29.879Z,10.30
2022-12-19T14:28:20.908Z,10.32
2022-12-19T14:30:28.971Z,10.60
2022-12-19T14:33:40.034Z,10.25
2022-12-19T14:36:04.872Z,10.93
2022-12-19T14:38:03.032Z,10.58
2022-12-19T14:40:07.732Z,9.90
2022-12-19T14:43:57.246Z,9.93
2022-12-19T14:54:10.726Z,10.58
2022-12-19T14:54:15.602Z,10.53
2022-12-19T14:54:21.095Z,11.03
2022-12-19T14:55:18.567Z,11.15
2022-12-19T14:57:01.759Z,10.60
2022-12-19T14:59:37.759Z,10.25
2022-12-19T15:02:11.368Z,9.35
2022-12-19T15:04:53.434Z,10.58
2022-12-19T15:07:22.194Z,9.68
2022-12-19T15:11:03.774Z,9.93
2022-12-19T15:19:07.998Z,8.43
2022-12-19T15:21:38.135Z,8.98
2022-12-19T15:24:09.422Z,8.58
2022-12-19T15:26:42.543Z,7.83
2022-12-19T15:29:19.811Z,9.00
2022-12-19T15:31:47.068Z,7.90
2022-12-19T15:34:35.512Z,8.23
2022-12-19T15:36:58.876Z,8.18
2022-12-19T15:39:30.986Z,8.45
2022-12-19T15:42:02.633Z,7.87
2022-12-19T15:44:43.263Z,7.92
2022-12-19T15:47:34.993Z,8.00
2022-12-19T15:50:17.368Z,8.05
2022-12-19T15:52:48.011Z,8.15
2022-12-19T15:55:19.875Z,7.97
2022-12-19T15:57:55.835Z,6.55
2022-12-19T16:00:29.089Z,8.75
2022-12-19T16:05:31.729Z,8.18
2022-12-19T16:08:01.924Z,8.13
2022-12-19T16:10:35.224Z,9.53
2022-12-19T16:13:05.528Z,8.15
2022-12-19T16:15:40.773Z,8.68
2022-12-19T16:18:14.135Z,9.15
2022-12-19T16:20:44.705Z,7.72
2022-12-19T16:23:17.490Z,8.63
2022-12-19T16:25:53.683Z,9.28
2022-12-19T16:28:34.192Z,9.48
2022-12-19T16:31:07.526Z,10.60
2022-12-19T16:33:37.848Z,9.58
2022-12-19T16:36:09.651Z,9.48
2022-12-19T16:38:39.896Z,9.95
2022-12-19T16:41:18.821Z,9.48
2022-12-19T16:43:49.202Z,9.18
2022-12-19T16:46:22.255Z,9.33
2022-12-19T16:48:52.775Z,9.05
2022-12-19T16:51:25.931Z,9.25
2022-12-19T16:53:59.845Z,8.30
2022-12-19T16:56:35.819Z,8.93
2022-12-19T16:59:09.642Z,8.15
2022-12-19T17:01:40.531Z,7.62
2022-12-19T17:04:13.991Z,7.40
2022-12-19T17:06:44.620Z,7.47
2022-12-19T17:09:19.941Z,7.33
2022-12-19T17:11:53.158Z,8.10
2022-12-19T17:14:26.265Z,6.95
2022-12-19T17:17:00.787Z,7.45
2022-12-19T17:19:37.183Z,7.20
2022-12-19T17:22:15.452Z,6.90
2022-12-19T17:24:47.908Z,7.10
2022-12-19T17:27:19.367Z,7.55
2022-12-19T17:29:49.577Z,7.55
2022-12-19T17:32:24.195Z,7.03
2022-12-19T17:34:53.019Z,6.87
2022-12-19T17:37:23.450Z,7.75
2022-12-19T17:39:54.950Z,8.48
2022-12-19T17:42:27.911Z,7.97
2022-12-19T17:44:58.582Z,7.47
2022-12-19T17:47:30.370Z,7.45
2022-12-19T17:50:00.958Z,7.25
2022-12-19T17:52:34.201Z,7.22
2022-12-19T17:55:17.048Z,7.45
2022-12-19T17:57:47.362Z,7.17
2022-12-19T18:00:22.841Z,6.65
2022-12-19T18:02:57.640Z,6.90
2022-12-19T18:05:31.122Z,6.65
2022-12-19T18:08:01.507Z,7.60
2022-12-19T18:10:33.030Z,7.12
2022-12-19T18:13:04.409Z,7.75
2022-12-19T18:15:35.329Z,6.90
2022-12-19T18:18:05.874Z,6.87
2022-12-19T18:20:36.235Z,7.28
2022-12-19T18:23:09.371Z,6.47
2022-12-19T18:25:39.738Z,7.47
2022-12-19T18:28:09.943Z,7.47
2022-12-19T18:30:41.021Z,7.35
2022-12-19T18:33:23.268Z,8.00
2022-12-19T18:35:53.497Z,7.25
2022-12-19T18:38:25.037Z,7.15
2022-12-19T18:40:55.217Z,7.60
2022-12-19T18:43:26.032Z,7.28
2022-12-19T18:45:56.413Z,7.15
2022-12-19T18:48:29.091Z,7.35
2022-12-19T18:51:00.825Z,6.65
2022-12-19T18:53:36.028Z,7.37
2022-12-19T18:56:07.724Z,7.40
2022-12-19T18:58:38.480Z,6.80
2022-12-19T19:01:14.443Z,7.65
2022-12-19T19:03:47.611Z,6.37
2022-12-19T19:06:24.404Z,6.87
2022-12-19T19:08:56.404Z,6.75
2022-12-19T19:11:27.808Z,7.05
2022-12-19T19:13:58.021Z,6.45
2022-12-19T19:16:28.854Z,6.83
2022-12-19T19:19:01.055Z,6.17
2022-12-19T19:21:34.229Z,6.10
2022-12-19T19:24:10.637Z,7.10
2022-12-19T19:29:11.013Z,6.83
2022-12-19T19:31:44.078Z,6.37
2022-12-19T19:34:23.179Z,6.83
2022-12-19T19:36:56.324Z,6.50
2022-12-19T19:39:27.952Z,7.17
2022-12-19T19:41:58.328Z,7.00
2022-12-19T19:44:29.883Z,7.35
2022-12-19T19:47:00.340Z,7.05
2022-12-19T19:49:30.651Z,6.92
2022-12-19T19:52:03.083Z,8.25
2022-12-19T19:54:33.383Z,7.25
2022-12-19T19:57:03.929Z,7.67
2022-12-19T19:59:34.182Z,6.75
2022-12-19T20:02:04.611Z,6.62
2022-12-19T20:04:36.359Z,6.33
2022-12-19T20:07:07.313Z,6.50
2022-12-19T20:09:37.787Z,6.70
2022-12-19T20:12:08.389Z,7.15
2022-12-19T20:14:38.695Z,6.90
2022-12-19T20:17:09.096Z,6.40
2022-12-19T20:19:40.153Z,6.53
2022-12-19T20:22:10.558Z,5.90
2022-12-19T20:24:41.070Z,6.53
2022-12-19T20:27:11.704Z,6.55
2022-12-19T20:29:42.174Z,6.42
2022-12-19T20:32:14.238Z,6.30
2022-12-19T20:34:44.446Z,6.97
2022-12-19T20:37:15.512Z,6.33
2022-12-19T20:39:45.668Z,6.62
2022-12-19T20:42:16.159Z,7.05
2022-12-19T20:44:46.720Z,6.37
2022-12-19T20:47:17.926Z,6.40
2022-12-19T20:49:48.670Z,6.65
2022-12-19T20:52:20.551Z,7.65
2022-12-19T20:54:51.080Z,7.20
2022-12-19T20:57:21.601Z,6.37
2022-12-19T20:59:52.547Z,7.42
2022-12-19T21:02:23.022Z,6.15
2022-12-19T21:04:53.604Z,6.45
2022-12-19T21:07:24.710Z,6.95
2022-12-19T21:09:55.240Z,7.40
2022-12-19T21:12:25.579Z,6.03
2022-12-19T21:14:55.735Z,7.17
2022-12-19T21:17:26.061Z,6.53
2022-12-19T21:19:56.586Z,6.92
2022-12-19T21:22:26.884Z,6.78
2022-12-19T21:24:57.007Z,7.37
2022-12-19T21:27:27.352Z,6.37
2022-12-19T21:29:57.662Z,5.90
2022-12-19T21:32:28.643Z,6.20
2022-12-19T21:34:59.011Z,6.37
2022-12-19T21:37:31.074Z,6.87
2022-12-19T21:40:01.384Z,6.55
2022-12-19T21:42:31.876Z,5.90
2022-12-19T21:45:02.104Z,6.12
2022-12-19T21:47:32.371Z,7.00
2022-12-19T21:50:02.784Z,6.95
2022-12-19T21:52:33.275Z,6.42
2022-12-19T21:55:03.980Z,6.15
2022-12-19T21:57:36.215Z,6.47
2022-12-19T22:00:07.851Z,6.45
2022-12-19T22:02:38.718Z,5.95
2022-12-19T22:05:09.508Z,6.15
2022-12-19T22:07:39.691Z,6.50
2022-12-19T22:10:10.906Z,6.25
2022-12-19T22:12:41.080Z,6.10
2022-12-19T22:15:11.529Z,6.55
2022-12-19T22:17:43.539Z,6.85
2022-12-19T22:20:13.884Z,6.47
2022-12-19T22:22:44.030Z,5.83
2022-12-19T22:25:14.352Z,6.87
2022-12-19T22:27:44.651Z,7.00
2022-12-19T22:30:35.603Z,6.35
2022-12-19T22:33:06.326Z,5.85
2022-12-19T22:35:36.540Z,6.42
2022-12-19T22:38:06.729Z,5.30
2022-12-19T22:40:36.780Z,5.87
2022-12-19T22:43:06.898Z,6.78
2022-12-19T22:45:37.217Z,6.75
2022-12-19T22:48:07.931Z,6.40
2022-12-19T22:50:38.097Z,5.72
2022-12-19T22:53:12.731Z,6.22
2022-12-19T22:55:40.090Z,5.60
2022-12-19T22:58:10.422Z,6.42
2022-12-19T23:00:40.576Z,5.83
2022-12-19T23:03:10.920Z,6.58
2022-12-19T23:05:42.709Z,6.65
2022-12-19T23:08:13.131Z,6.08
2022-12-19T23:10:43.419Z,5.97
2022-12-19T23:13:13.584Z,6.60
2022-12-19T23:15:43.861Z,6.08
2022-12-19T23:18:14.091Z,6.22
2022-12-19T23:20:44.781Z,6.05
2022-12-19T23:23:15.547Z,5.80
2022-12-19T23:25:45.686Z,6.78
2022-12-19T23:28:15.772Z,5.70
2022-12-19T23:30:46.061Z,5.22
2022-12-19T23:33:16.187Z,5.95
2022-12-19T23:35:46.473Z,6.10
2022-12-19T23:38:16.669Z,5.70
2022-12-19T23:40:46.929Z,5.47
2022-12-19T23:43:17.313Z,6.12
2022-12-19T23:45:47.757Z,5.90
2022-12-19T23:48:18.077Z,6.05
2022-12-19T23:50:48.230Z,5.55
2022-12-19T23:53:18.352Z,5.65
2022-12-19T23:55:51.632Z,5.92
2022-12-19T23:58:24.929Z,4.80
